createdAt,value
2018-06-17T00:00:55.936Z,3.73
2018-06-17T00:03:24.100Z,3.20
2018-06-17T00:05:52.282Z,3.60
2018-06-17T00:08:20.482Z,3.47
2018-06-17T00:10:48.671Z,3.50
2018-06-17T00:13:16.825Z,3.70
2018-06-17T00:15:45.018Z,3.70
2018-06-17T00:18:13.176Z,3.63
2018-06-17T00:20:41.372Z,3.60
2018-06-17T00:23:09.521Z,3.73
2018-06-17T00:25:37.719Z,3.77
2018-06-17T00:28:05.877Z,4.10
2018-06-17T00:30:34.046Z,3.90
2018-06-17T00:33:02.223Z,3.67
2018-06-17T00:35:30.409Z,3.30
2018-06-17T00:37:58.548Z,4.00
2018-06-17T00:40:26.726Z,3.97
2018-06-17T00:42:54.910Z,3.97
2018-06-17T00:45:23.073Z,4.13
2018-06-17T00:47:51.297Z,3.70
2018-06-17T00:50:19.245Z,4.50
2018-06-17T00:52:47.421Z,4.80
2018-06-17T00:55:15.589Z,4.50
2018-06-17T00:57:51.357Z,3.63
2018-06-17T01:00:20.542Z,4.07
2018-06-17T01:02:48.716Z,3.70
2018-06-17T01:05:17.418Z,3.77
2018-06-17T01:07:45.633Z,4.00
2018-06-17T01:10:13.807Z,4.00
2018-06-17T01:12:41.980Z,4.30
2018-06-17T01:15:10.162Z,5.07
2018-06-17T01:17:38.789Z,4.00
2018-06-17T01:20:07.792Z,3.90
2018-06-17T01:22:35.950Z,3.53
2018-06-17T01:25:04.130Z,3.53
2018-06-17T01:27:32.306Z,3.90
2018-06-17T01:30:00.545Z,4.90
2018-06-17T01:32:28.756Z,3.90
2018-06-17T01:34:56.868Z,3.60
2018-06-17T01:37:25.044Z,3.70
2018-06-17T01:39:53.226Z,3.40
2018-06-17T01:42:21.395Z,3.80
2018-06-17T01:44:49.574Z,4.00
2018-06-17T01:47:17.721Z,4.20
2018-06-17T01:49:45.637Z,3.87
2018-06-17T01:52:13.801Z,4.10
2018-06-17T01:54:41.966Z,3.90
2018-06-17T01:57:10.118Z,4.20
2018-06-17T01:59:38.302Z,3.97
2018-06-17T02:02:06.453Z,3.47
2018-06-17T02:04:40.078Z,3.93
2018-06-17T02:07:13.677Z,4.33
2018-06-17T02:09:47.290Z,4.30
2018-06-17T02:12:17.661Z,4.60
2018-06-17T02:14:51.073Z,4.30
2018-06-17T02:17:19.990Z,4.93
2018-06-17T02:19:48.210Z,4.07
2018-06-17T02:22:16.376Z,4.80
2018-06-17T02:24:44.549Z,4.87
2018-06-17T02:27:12.704Z,5.10
2018-06-17T02:29:40.877Z,4.87
2018-06-17T02:32:09.034Z,5.10
2018-06-17T02:34:37.618Z,4.87
2018-06-17T02:37:06.278Z,4.30
2018-06-17T02:39:34.327Z,5.17
2018-06-17T02:42:02.489Z,4.70
2018-06-17T02:44:30.682Z,5.30
2018-06-17T02:47:04.384Z,4.73
2018-06-17T02:49:36.130Z,4.73
2018-06-17T02:52:10.155Z,4.70
2018-06-17T02:54:39.982Z,4.30
2018-06-17T02:57:09.066Z,4.97
2018-06-17T02:59:37.240Z,4.93
2018-06-17T03:02:05.451Z,4.97
2018-06-17T03:04:33.581Z,4.90
2018-06-17T03:07:01.770Z,4.87
2018-06-17T03:09:29.958Z,5.10
2018-06-17T03:11:58.165Z,4.67
2018-06-17T03:14:26.350Z,4.90
2018-06-17T03:16:54.635Z,5.03
2018-06-17T03:19:23.145Z,4.87
2018-06-17T03:21:51.407Z,4.90
2018-06-17T03:24:25.084Z,4.83
2018-06-17T03:26:58.633Z,4.80
2018-06-17T03:29:32.269Z,4.40
2018-06-17T03:32:05.953Z,4.67
2018-06-17T03:34:33.887Z,4.77
2018-06-17T03:37:02.068Z,3.90
2018-06-17T03:39:30.218Z,5.00
2018-06-17T03:41:58.372Z,4.40
2018-06-17T03:44:26.532Z,4.63
2018-06-17T03:46:54.699Z,3.77
2018-06-17T03:49:22.872Z,4.37
2018-06-17T03:51:50.790Z,4.43
2018-06-17T03:54:18.947Z,3.67
2018-06-17T03:56:47.120Z,4.00
2018-06-17T03:59:15.269Z,3.50
2018-06-17T04:01:43.460Z,4.10
2018-06-17T04:04:11.690Z,3.70
2018-06-17T04:06:39.788Z,3.60
2018-06-17T04:09:08.464Z,4.20
2018-06-17T04:11:36.947Z,3.53
2018-06-17T04:14:04.876Z,3.60
2018-06-17T04:16:33.046Z,4.50
2018-06-17T04:19:01.330Z,4.20
2018-06-17T04:21:29.489Z,4.20
2018-06-17T04:23:57.630Z,4.67
2018-06-17T04:26:25.799Z,4.13
2018-06-17T04:28:53.972Z,4.47
2018-06-17T04:31:22.967Z,3.93
2018-06-17T04:33:51.125Z,4.57
2018-06-17T04:36:19.321Z,4.27
2018-06-17T04:38:47.493Z,4.10
2018-06-17T04:41:15.665Z,4.20
2018-06-17T04:43:43.823Z,4.37
2018-06-17T04:46:12.012Z,4.30
2018-06-17T04:48:40.169Z,4.20
2018-06-17T04:51:08.361Z,4.60
2018-06-17T04:53:36.513Z,4.27
2018-06-17T04:56:04.726Z,4.20
2018-06-17T04:58:32.898Z,4.27
2018-06-17T05:01:01.063Z,4.20
2018-06-17T05:03:29.220Z,4.30
2018-06-17T05:05:57.397Z,4.53
2018-06-17T05:08:25.548Z,3.93
2018-06-17T05:10:53.733Z,4.23
2018-06-17T05:13:23.092Z,5.10
2018-06-17T05:15:51.274Z,4.73
2018-06-17T05:18:19.413Z,4.23
2018-06-17T05:20:47.605Z,4.00
2018-06-17T05:23:15.770Z,4.90
2018-06-17T05:25:43.937Z,4.70
2018-06-17T05:28:12.110Z,4.10
2018-06-17T05:30:40.286Z,4.63
2018-06-17T05:33:08.434Z,4.83
2018-06-17T05:35:36.606Z,4.13
2018-06-17T05:38:05.112Z,4.50
2018-06-17T05:40:33.273Z,4.43
2018-06-17T05:43:01.429Z,4.40
2018-06-17T05:45:29.362Z,3.90
2018-06-17T05:47:57.534Z,4.17
2018-06-17T05:50:25.731Z,3.67
2018-06-17T05:52:53.919Z,3.90
2018-06-17T05:55:22.095Z,3.80
2018-06-17T05:57:50.010Z,3.93
2018-06-17T06:00:18.154Z,3.63
2018-06-17T06:02:46.319Z,3.60
2018-06-17T06:05:14.493Z,4.23
2018-06-17T06:07:42.409Z,3.67
2018-06-17T06:10:10.621Z,3.90
2018-06-17T06:12:38.537Z,3.40
2018-06-17T06:15:06.694Z,3.77
2018-06-17T06:17:34.862Z,3.60
2018-06-17T06:20:03.013Z,3.80
2018-06-17T06:22:30.941Z,3.47
2018-06-17T06:24:59.102Z,3.70
2018-06-17T06:27:27.278Z,3.60
2018-06-17T06:29:55.473Z,3.50
2018-06-17T06:32:23.680Z,3.40
2018-06-17T06:34:51.825Z,3.50
2018-06-17T06:37:20.030Z,3.60
2018-06-17T06:39:48.179Z,3.23
2018-06-17T06:42:16.341Z,4.33
2018-06-17T06:44:44.531Z,3.60
2018-06-17T06:47:12.685Z,3.30
2018-06-17T06:49:40.835Z,3.60
2018-06-17T06:52:09.010Z,3.17
2018-06-17T06:54:37.165Z,3.57
2018-06-17T06:57:05.449Z,3.30
2018-06-17T06:59:33.626Z,3.40
2018-06-17T07:02:13.353Z,3.50
2018-06-17T07:04:53.028Z,3.07
2018-06-17T07:07:32.561Z,3.43
2018-06-17T07:10:10.826Z,3.37
2018-06-17T07:12:39.065Z,3.20
2018-06-17T07:15:07.223Z,2.70
2018-06-17T07:17:46.857Z,3.00
2018-06-17T07:20:15.026Z,2.67
2018-06-17T07:22:43.202Z,2.77
2018-06-17T07:25:35.409Z,2.60
2018-06-17T07:28:09.105Z,2.77
2018-06-17T07:30:37.278Z,2.70
2018-06-17T07:33:05.448Z,2.90
2018-06-17T07:35:33.607Z,2.40
2018-06-17T07:38:01.770Z,2.90
2018-06-17T07:40:50.873Z,2.53
2018-06-17T07:43:19.075Z,2.60
2018-06-17T07:45:47.251Z,2.23
2018-06-17T07:50:28.652Z,2.37
2018-06-17T07:53:08.175Z,2.20
2018-06-17T07:55:36.333Z,1.73
2018-06-17T07:58:04.257Z,1.50
2018-06-17T08:00:32.446Z,2.13
2018-06-17T08:03:00.643Z,1.93
2018-06-17T08:05:28.813Z,1.77
2018-06-17T08:07:56.972Z,1.73
2018-06-17T08:10:25.147Z,1.70
2018-06-17T08:12:53.341Z,1.60
2018-06-17T08:15:21.734Z,1.50
2018-06-17T08:17:49.865Z,1.80
2018-06-17T08:20:18.042Z,1.80
2018-06-17T08:22:46.201Z,1.73
2018-06-17T08:25:14.365Z,2.00
2018-06-17T08:27:42.520Z,1.77
2018-06-17T08:30:10.706Z,2.03
2018-06-17T08:32:38.897Z,1.80
2018-06-17T08:35:07.106Z,2.10
2018-06-17T08:37:35.296Z,1.50
2018-06-17T08:40:03.555Z,1.83
2018-06-17T08:42:31.741Z,1.73
2018-06-17T08:44:59.939Z,1.70
2018-06-17T08:47:28.126Z,1.70
2018-06-17T08:49:56.300Z,1.80
2018-06-17T08:52:24.476Z,1.70
2018-06-17T08:54:52.629Z,1.80
2018-06-17T08:57:20.819Z,1.70
2018-06-17T08:59:48.970Z,1.60
2018-06-17T09:02:16.912Z,1.30
2018-06-17T09:04:45.104Z,1.70
2018-06-17T09:07:13.282Z,1.77
2018-06-17T09:09:41.280Z,1.60
2018-06-17T09:12:09.462Z,1.50
2018-06-17T09:14:37.626Z,1.80
2018-06-17T09:17:06.160Z,1.80
2018-06-17T09:19:34.354Z,1.70
2018-06-17T09:22:02.546Z,2.10
2018-06-17T09:24:30.700Z,1.80
2018-06-17T09:26:58.633Z,1.80
2018-06-17T09:29:26.842Z,1.70
2018-06-17T09:31:55.039Z,1.70
2018-06-17T09:34:23.190Z,1.80
2018-06-17T09:36:51.396Z,2.07
2018-06-17T09:39:19.549Z,2.10
2018-06-17T09:41:47.488Z,1.90
2018-06-17T09:44:15.696Z,2.30
2018-06-17T09:46:43.870Z,2.10
2018-06-17T09:49:12.022Z,2.30
2018-06-17T09:51:40.217Z,2.13
2018-06-17T09:54:08.390Z,2.00
2018-06-17T09:56:36.337Z,2.30
2018-06-17T09:59:04.518Z,2.40
2018-06-17T10:01:32.737Z,1.80
2018-06-17T10:04:00.865Z,2.30
2018-06-17T10:06:29.044Z,2.53
2018-06-17T10:08:57.016Z,2.10
2018-06-17T10:11:25.137Z,2.70
2018-06-17T10:13:53.412Z,2.17
2018-06-17T10:16:21.616Z,2.50
2018-06-17T10:18:49.790Z,2.07
2018-06-17T10:21:17.974Z,2.33
2018-06-17T10:23:46.138Z,1.90
2018-06-17T10:26:14.306Z,2.23
2018-06-17T10:28:42.491Z,2.57
2018-06-17T10:31:10.674Z,2.53
2018-06-17T10:33:38.869Z,2.57
2018-06-17T10:36:06.815Z,2.20
2018-06-17T10:38:34.985Z,2.20
2018-06-17T10:41:03.148Z,2.60
2018-06-17T10:43:32.403Z,3.47
2018-06-17T10:46:00.341Z,3.37
2018-06-17T10:48:28.269Z,2.97
2018-06-17T10:50:56.479Z,2.60
2018-06-17T10:53:24.658Z,2.60
2018-06-17T10:55:53.007Z,5.00
2018-06-17T10:58:21.006Z,3.70
2018-06-17T11:00:49.170Z,10.53
2018-06-17T11:03:17.378Z,3.70
2018-06-17T11:05:45.638Z,2.90
2018-06-17T11:08:13.471Z,4.00
2018-06-17T11:10:41.639Z,2.93
2018-06-17T11:13:09.861Z,3.20
2018-06-17T11:15:37.765Z,2.73
2018-06-17T11:18:05.941Z,2.73
2018-06-17T11:20:34.135Z,3.00
2018-06-17T11:23:02.346Z,3.83
2018-06-17T11:25:30.291Z,3.13
2018-06-17T11:27:58.453Z,3.03
2018-06-17T11:30:26.632Z,2.77
2018-06-17T11:32:54.801Z,2.50
2018-06-17T11:35:22.985Z,3.00
2018-06-17T11:37:51.169Z,2.70
2018-06-17T11:40:19.345Z,2.53
2018-06-17T11:42:47.549Z,2.53
2018-06-17T11:45:15.445Z,2.80
2018-06-17T11:47:43.641Z,2.70
2018-06-17T11:50:12.181Z,2.90
2018-06-17T11:52:40.336Z,3.43
2018-06-17T11:55:08.506Z,2.87
2018-06-17T11:57:36.670Z,2.40
2018-06-17T12:00:05.325Z,2.93
2018-06-17T12:02:33.561Z,2.90
2018-06-17T12:05:01.482Z,3.70
2018-06-17T12:07:29.649Z,3.00
2018-06-17T12:09:57.818Z,2.57
2018-06-17T12:12:26.001Z,2.70
2018-06-17T12:14:54.235Z,2.37
2018-06-17T12:17:22.451Z,3.10
2018-06-17T12:19:50.686Z,3.00
2018-06-17T12:22:18.861Z,2.83
2018-06-17T12:24:47.031Z,2.70
2018-06-17T12:27:15.236Z,2.60
2018-06-17T12:29:43.410Z,2.50
2018-06-17T12:32:11.594Z,2.70
2018-06-17T12:34:39.796Z,2.43
2018-06-17T12:37:08.126Z,2.50
2018-06-17T12:39:36.380Z,2.73
2018-06-17T12:42:04.590Z,2.90
2018-06-17T12:44:32.788Z,2.40
2018-06-17T12:47:00.954Z,2.47
2018-06-17T12:49:29.130Z,1.90
2018-06-17T12:51:57.312Z,2.50
2018-06-17T12:54:25.529Z,2.33
2018-06-17T12:56:53.718Z,1.90
2018-06-17T12:59:21.926Z,2.53
2018-06-17T13:01:50.150Z,1.90
2018-06-17T13:04:18.374Z,2.03
2018-06-17T13:06:46.588Z,1.70
2018-06-17T13:09:14.784Z,2.10
2018-06-17T13:11:42.946Z,2.30
2018-06-17T13:14:11.174Z,2.40
2018-06-17T13:16:39.370Z,1.90
2018-06-17T13:19:07.573Z,2.33
2018-06-17T13:21:35.754Z,2.20
2018-06-17T13:24:03.937Z,2.10
2018-06-17T13:26:32.165Z,2.00
2018-06-17T13:29:00.335Z,2.00
2018-06-17T13:31:29.062Z,1.97
2018-06-17T13:33:57.256Z,2.23
2018-06-17T13:36:25.400Z,2.20
2018-06-17T13:38:53.627Z,2.43
2018-06-17T13:41:21.851Z,2.40
2018-06-17T13:43:50.026Z,2.47
2018-06-17T13:46:18.304Z,2.90
2018-06-17T13:48:46.487Z,3.00
2018-06-17T13:51:14.681Z,3.27
2018-06-17T13:53:42.905Z,2.93
2018-06-17T13:56:11.095Z,2.43
2018-06-17T13:58:39.306Z,2.47
2018-06-17T14:01:07.582Z,2.67
2018-06-17T14:03:35.781Z,2.73
2018-06-17T14:06:03.955Z,2.60
2018-06-17T14:08:32.148Z,3.10
2018-06-17T14:11:00.346Z,2.80
2018-06-17T14:13:28.559Z,2.67
2018-06-17T14:15:56.767Z,2.33
2018-06-17T14:18:24.937Z,2.93
2018-06-17T14:20:53.266Z,2.57
2018-06-17T14:23:21.457Z,3.07
2018-06-17T14:25:49.651Z,3.13
2018-06-17T14:28:17.895Z,2.93
2018-06-17T14:30:46.095Z,2.70
2018-06-17T14:33:14.317Z,2.93
2018-06-17T14:35:42.605Z,2.67
2018-06-17T14:38:10.778Z,2.80
2018-06-17T14:40:44.217Z,2.80
2018-06-17T14:43:17.891Z,2.43
2018-06-17T14:45:51.558Z,2.83
2018-06-17T14:48:25.093Z,3.07
2018-06-17T14:50:58.626Z,2.40
2018-06-17T14:53:26.805Z,2.37
2018-06-17T14:55:55.285Z,2.80
2018-06-17T14:58:23.504Z,3.00
2018-06-17T15:00:51.672Z,3.00
2018-06-17T15:03:19.640Z,2.83
2018-06-17T15:05:47.815Z,2.97
2018-06-17T15:08:15.749Z,3.10
2018-06-17T15:10:43.964Z,2.57
2018-06-17T15:13:12.182Z,2.80
2018-06-17T15:15:40.378Z,2.87
2018-06-17T15:18:08.637Z,3.30
2018-06-17T15:20:36.775Z,3.00
2018-06-17T15:23:04.986Z,2.73
2018-06-17T15:25:33.243Z,2.70
2018-06-17T15:28:01.418Z,2.67
2018-06-17T15:30:29.603Z,3.20
2018-06-17T15:33:03.256Z,3.13
2018-06-17T15:35:36.910Z,3.60
2018-06-17T15:38:10.599Z,2.80
2018-06-17T15:40:44.201Z,3.00
2018-06-17T15:43:12.387Z,3.40
2018-06-17T15:45:40.569Z,3.30
2018-06-17T15:48:08.784Z,2.80
2018-06-17T15:50:37.068Z,2.80
2018-06-17T15:53:05.171Z,2.80
2018-06-17T15:55:33.425Z,2.60
2018-06-17T15:58:01.607Z,2.50
2018-06-17T16:00:29.797Z,2.50
2018-06-17T16:02:57.982Z,2.70
2018-06-17T16:05:26.218Z,3.17
2018-06-17T16:07:54.433Z,2.70
2018-06-17T16:10:22.603Z,3.00
2018-06-17T16:12:56.209Z,2.77
2018-06-17T16:15:29.880Z,2.90
2018-06-17T16:18:03.515Z,2.40
2018-06-17T16:20:36.866Z,2.60
2018-06-17T16:23:05.078Z,3.10
2018-06-17T16:25:33.267Z,3.20
2018-06-17T16:28:01.482Z,3.13
2018-06-17T16:30:29.445Z,2.80
2018-06-17T16:32:57.632Z,2.83
2018-06-17T16:35:25.588Z,2.80
2018-06-17T16:37:53.834Z,2.80
2018-06-17T16:40:22.044Z,2.60
2018-06-17T16:42:50.269Z,2.60
2018-06-17T16:45:18.514Z,2.70
2018-06-17T16:47:46.686Z,3.20
2018-06-17T16:50:14.893Z,2.50
2018-06-17T16:52:48.381Z,2.97
2018-06-17T16:55:21.966Z,3.00
2018-06-17T16:57:55.612Z,2.50
2018-06-17T17:00:23.762Z,2.20
2018-06-17T17:02:52.001Z,2.63
2018-06-17T17:05:19.937Z,2.87
2018-06-17T17:07:48.130Z,2.50
2018-06-17T17:10:16.065Z,2.63
2018-06-17T17:12:44.223Z,2.73
2018-06-17T17:15:12.393Z,2.80
2018-06-17T17:17:40.578Z,2.50
2018-06-17T17:20:08.733Z,2.47
2018-06-17T17:22:36.971Z,2.57
2018-06-17T17:25:05.117Z,2.27
2018-06-17T17:27:33.277Z,2.53
2018-06-17T17:30:01.446Z,2.50
2018-06-17T17:32:34.937Z,2.27
2018-06-17T17:35:08.562Z,2.73
2018-06-17T17:37:42.194Z,2.53
2018-06-17T17:40:15.833Z,2.67
2018-06-17T17:42:44.007Z,2.57
2018-06-17T17:45:17.577Z,2.63
2018-06-17T17:47:45.607Z,2.83
2018-06-17T17:50:13.786Z,2.70
2018-06-17T17:52:41.959Z,2.43
2018-06-17T17:55:10.217Z,2.93
2018-06-17T17:57:38.435Z,2.50
2018-06-17T18:00:06.867Z,2.40
2018-06-17T18:02:35.092Z,2.17
2018-06-17T18:05:03.296Z,2.53
2018-06-17T18:07:31.558Z,3.00
2018-06-17T18:09:59.506Z,2.80
2018-06-17T18:12:27.703Z,2.93
2018-06-17T18:14:55.957Z,2.27
2018-06-17T18:17:24.134Z,2.57
2018-06-17T18:19:52.305Z,2.53
2018-06-17T18:22:20.507Z,2.40
2018-06-17T18:24:54.140Z,3.53
2018-06-17T18:27:27.849Z,2.47
2018-06-17T18:30:01.441Z,2.80
2018-06-17T18:32:35.041Z,2.97
2018-06-17T18:35:08.691Z,3.47
2018-06-17T18:37:36.873Z,3.57
2018-06-17T18:40:04.896Z,1.70
2018-06-17T18:42:33.208Z,2.40
2018-06-17T18:45:01.394Z,2.87
2018-06-17T18:47:29.624Z,3.13
2018-06-17T18:49:57.841Z,3.00
2018-06-17T18:52:26.063Z,2.63
2018-06-17T18:54:54.314Z,4.00
2018-06-17T18:57:22.269Z,2.50
2018-06-17T18:59:50.217Z,2.70
2018-06-17T19:02:18.417Z,2.47
2018-06-17T19:04:46.582Z,2.50
2018-06-17T19:07:14.746Z,2.00
2018-06-17T19:09:48.262Z,2.23
2018-06-17T19:12:22.003Z,1.90
2018-06-17T19:14:55.462Z,2.10
2018-06-17T19:17:29.110Z,2.37
2018-06-17T19:19:57.284Z,1.90
2018-06-17T19:22:25.447Z,2.20
2018-06-17T19:24:53.630Z,3.27
2018-06-17T19:27:21.842Z,2.30
2018-06-17T19:29:50.025Z,2.10
2018-06-17T19:32:18.246Z,2.57
2018-06-17T19:34:46.429Z,2.40
2018-06-17T19:37:14.624Z,1.97
2018-06-17T19:39:42.782Z,2.10
2018-06-17T19:42:10.986Z,2.10
2018-06-17T19:44:39.341Z,2.23
2018-06-17T19:47:08.311Z,2.30
2018-06-17T19:49:41.819Z,3.73
2018-06-17T19:52:15.414Z,2.37
2018-06-17T19:54:49.028Z,2.30
2018-06-17T19:57:22.525Z,1.90
2018-06-17T19:59:56.054Z,2.10
2018-06-17T20:02:24.230Z,2.70
2018-06-17T20:04:52.411Z,2.00
2018-06-17T20:07:20.581Z,2.03
2018-06-17T20:09:48.801Z,2.50
2018-06-17T20:12:16.974Z,2.30
2018-06-17T20:14:45.167Z,2.03
2018-06-17T20:17:13.343Z,2.27
2018-06-17T20:19:41.512Z,2.20
2018-06-17T20:22:09.701Z,2.30
2018-06-17T20:24:37.878Z,2.10
2018-06-17T20:27:06.029Z,2.13
2018-06-17T20:29:34.229Z,1.73
2018-06-17T20:32:07.827Z,2.83
2018-06-17T20:34:41.590Z,2.57
2018-06-17T20:37:15.148Z,2.87
2018-06-17T20:40:51.083Z,2.20
2018-06-17T20:43:24.734Z,2.10
2018-06-17T20:45:52.931Z,2.07
2018-06-17T20:48:21.110Z,2.30
2018-06-17T20:50:49.293Z,2.30
2018-06-17T20:53:17.458Z,2.13
2018-06-17T20:55:45.642Z,2.23
2018-06-17T20:58:13.811Z,2.10
2018-06-17T21:00:41.984Z,2.30
2018-06-17T21:03:10.185Z,3.50
2018-06-17T21:05:38.394Z,3.07
2018-06-17T21:08:06.566Z,3.00
2018-06-17T21:10:34.746Z,2.40
2018-06-17T21:13:02.986Z,2.17
2018-06-17T21:15:31.149Z,2.67
2018-06-17T21:17:59.307Z,2.17
2018-06-17T21:20:32.996Z,2.33
2018-06-17T21:23:06.405Z,2.17
2018-06-17T21:25:40.159Z,3.27
2018-06-17T21:28:08.325Z,2.83
2018-06-17T21:30:36.553Z,2.50
2018-06-17T21:33:04.726Z,2.97
2018-06-17T21:35:32.913Z,2.87
2018-06-17T21:38:01.072Z,2.67
2018-06-17T21:40:29.255Z,3.07
2018-06-17T21:42:57.419Z,2.77
2018-06-17T21:45:25.349Z,2.67
2018-06-17T21:47:53.533Z,4.37
2018-06-17T21:50:21.734Z,2.80
2018-06-17T21:52:49.681Z,2.80
2018-06-17T21:55:17.850Z,3.27
2018-06-17T21:57:46.021Z,3.67
2018-06-17T22:00:14.227Z,3.03
2018-06-17T22:02:43.225Z,2.73
2018-06-17T22:05:11.546Z,3.40
2018-06-17T22:07:45.067Z,3.03
2018-06-17T22:10:18.658Z,3.17
2018-06-17T22:12:52.318Z,3.40
2018-06-17T22:15:25.961Z,4.00
2018-06-17T22:17:54.978Z,4.20
2018-06-17T22:20:23.150Z,3.60
2018-06-17T22:22:51.312Z,3.30
2018-06-17T22:25:19.519Z,2.60
2018-06-17T22:27:47.492Z,8.67
2018-06-17T22:30:15.685Z,4.00
2018-06-17T22:32:43.909Z,3.53
2018-06-17T22:35:12.142Z,3.53
2018-06-17T22:37:40.293Z,4.73
2018-06-17T22:40:08.518Z,4.07
2018-06-17T22:42:36.937Z,3.67
2018-06-17T22:45:05.285Z,3.63
2018-06-17T22:47:38.971Z,3.60
2018-06-17T22:50:07.687Z,3.67
2018-06-17T22:52:47.461Z,3.47
2018-06-17T22:55:15.637Z,5.07
2018-06-17T22:57:49.133Z,3.90
2018-06-17T23:00:22.798Z,4.10
2018-06-17T23:02:56.461Z,6.70
2018-06-17T23:07:36.444Z,4.23
2018-06-17T23:10:05.885Z,3.53
2018-06-17T23:12:34.069Z,4.90
2018-06-17T23:15:02.243Z,4.00
2018-06-17T23:17:30.192Z,3.60
2018-06-17T23:19:58.365Z,4.10
2018-06-17T23:22:26.561Z,3.13
2018-06-17T23:24:54.739Z,3.27
2018-06-17T23:27:22.907Z,3.30
2018-06-17T23:29:50.852Z,3.47
2018-06-17T23:32:19.030Z,3.27
2018-06-17T23:34:47.254Z,3.07
2018-06-17T23:37:15.505Z,3.70
2018-06-17T23:39:43.621Z,3.00
2018-06-17T23:42:11.791Z,7.40
2018-06-17T23:44:39.945Z,10.80
2018-06-17T23:47:13.545Z,4.07
2018-06-17T23:49:47.234Z,3.73
2018-06-17T23:52:20.553Z,3.40
2018-06-17T23:54:54.143Z,3.50
2018-06-17T23:57:22.292Z,3.50
2018-06-17T23:59:50.226Z,4.43
